Time;durP1;ratioP1;P1;durP2;ratioP2;P2;SDS_P1;SDS_P2;PMS_P1;PMS_P2;Temp;Humidity;BMP_temperature;BMP_pressure;BME280_temperature;BME280_humidity;BME280_pressure;Samples;Min_cycle;Max_cycle;Signal;HPM_P1;HPM_P2
2023/11/13 07:16:43;;;;;;;0.98;0.30;;;;;;;;;;5401466;23;20082;-88
2023/11/13 08:16:53;;;;;;;6.80;1.10;;;;;;;;;;5762397;23;20056;-88
2023/11/13 08:19:24;;;;;;;0.65;0.55;;;;;;;;;;4884914;29;20036;-87
2023/11/13 08:22:01;;;;;;;1.17;0.63;;;;;;;;;;4900489;29;20080;-86
2023/11/13 08:24:29;;;;;;;3.50;0.40;;;;;;;;;;4895788;29;20032;-89
2023/11/13 08:26:55;;;;;;;1.13;0.52;;;;;;;;;;4884096;29;20065;-88
2023/11/13 08:29:22;;;;;;;2.28;0.52;;;;;;;;;;4882282;29;20036;-86
2023/11/13 08:31:48;;;;;;;3.03;1.30;;;;;;;;;;4880062;29;20755;-88
2023/11/13 08:34:15;;;;;;;2.28;0.93;;;;;;;;;;4876705;29;20076;-89
2023/11/13 08:36:41;;;;;;;1.02;0.57;;;;;;;;;;4884285;29;20039;-94
2023/11/13 08:39:10;;;;;;;0.38;0.30;;;;;;;;;;4885812;29;20033;-94
2023/11/13 08:41:36;;;;;;;2.67;1.10;;;;;;;;;;4880454;29;20037;-89
2023/11/13 08:44:03;;;;;;;0.38;0.25;;;;;;;;;;4878323;29;20085;-89
2023/11/13 08:46:31;;;;;;;0.63;0.30;;;;;;;;;;4883102;29;20032;-91
2023/11/13 08:48:57;;;;;;;1.08;0.55;;;;;;;;;;4883213;29;20539;-87
2023/11/13 08:51:27;;;;;;;0.70;0.30;;;;;;;;;;4898510;29;20040;-90
2023/11/13 08:53:53;;;;;;;0.50;0.25;;;;;;;;;;4883623;29;20243;-91
2023/11/13 08:56:21;;;;;;;1.48;0.20;;;;;;;;;;4879136;29;20041;-92
2023/11/13 08:58:47;;;;;;;0.38;0.20;;;;;;;;;;4883162;29;20044;-90
2023/11/13 09:01:15;;;;;;;0.68;0.40;;;;;;;;;;4883287;29;20028;-91
2023/11/13 09:03:41;;;;;;;2.35;0.60;;;;;;;;;;4882944;29;20033;-90
2023/11/13 09:06:13;;;;;;;3.45;0.50;;;;;;;;;;4884409;29;20057;-90
2023/11/13 09:08:42;;;;;;;2.83;0.65;;;;;;;;;;4883017;29;20037;-91
2023/11/13 09:11:08;;;;;;;1.40;0.93;;;;;;;;;;4880285;29;20052;-91
2023/11/13 09:13:34;;;;;;;4.80;1.20;;;;;;;;;;4874387;29;20045;-89
2023/11/13 09:16:04;;;;;;;1.58;0.43;;;;;;;;;;4885354;29;20080;-94
2023/11/13 09:18:31;;;;;;;1.05;0.40;;;;;;;;;;4905483;29;20714;-92
2023/11/13 09:20:58;;;;;;;1.55;0.85;;;;;;;;;;4905892;29;20036;-95
2023/11/13 09:23:24;;;;;;;1.13;0.40;;;;;;;;;;4905523;29;20084;-95
2023/11/13 09:25:50;;;;;;;0.57;0.32;;;;;;;;;;4906990;29;20033;-93
2023/11/13 09:28:16;;;;;;;1.05;0.10;;;;;;;;;;4904182;29;20033;-91
2023/11/13 09:30:45;;;;;;;0.32;0.20;;;;;;;;;;4903254;29;20410;-93
2023/11/13 09:33:11;;;;;;;2.50;0.35;;;;;;;;;;4890586;29;20037;-94
2023/11/13 09:35:38;;;;;;;0.98;0.10;;;;;;;;;;4891425;29;20482;-93
2023/11/13 09:38:04;;;;;;;0.40;0.10;;;;;;;;;;4903449;29;20122;-92
2023/11/13 09:40:37;;;;;;;0.68;0.22;;;;;;;;;;4900834;29;20029;-94
2023/11/13 09:43:14;;;;;;;1.25;0.88;;;;;;;;;;4903429;29;20095;-93
2023/11/13 09:45:46;;;;;;;2.08;0.57;;;;;;;;;;4903147;29;20075;-94
2023/11/13 09:48:21;;;;;;;0.55;0.40;;;;;;;;;;4904194;29;20032;-95
2023/11/13 09:50:49;;;;;;;1.23;0.50;;;;;;;;;;4904025;29;20360;-92
2023/11/13 09:53:16;;;;;;;1.38;0.47;;;;;;;;;;4903515;29;20035;-94
2023/11/13 09:55:42;;;;;;;1.10;0.52;;;;;;;;;;4903363;29;20135;-94
2023/11/13 09:58:10;;;;;;;1.35;0.40;;;;;;;;;;4903524;29;20032;-95
2023/11/13 10:00:36;;;;;;;1.05;0.57;;;;;;;;;;4903288;29;20039;-94
2023/11/13 10:03:02;;;;;;;0.75;0.45;;;;;;;;;;4903906;29;20475;-94
2023/11/13 10:05:34;;;;;;;1.55;0.60;;;;;;;;;;4903354;29;20114;-93
2023/11/13 10:08:00;;;;;;;0.50;0.20;;;;;;;;;;4903076;29;20470;-95
2023/11/13 10:10:30;;;;;;;0.85;0.35;;;;;;;;;;4903495;29;20028;-95
2023/11/13 10:13:04;;;;;;;1.20;0.35;;;;;;;;;;4902656;29;20032;-93
2023/11/13 10:15:36;;;;;;;0.70;0.20;;;;;;;;;;4902191;29;20040;-93
2023/11/13 10:18:04;;;;;;;0.70;0.28;;;;;;;;;;4901866;29;20087;-93
2023/11/13 10:20:30;;;;;;;0.85;0.35;;;;;;;;;;4902192;29;20040;-92
2023/11/13 10:23:03;;;;;;;0.80;0.20;;;;;;;;;;4920452;29;20490;-93
2023/11/13 10:25:50;;;;;;;1.05;0.22;;;;;;;;;;4903023;29;20056;-93
2023/11/13 10:28:22;;;;;;;0.63;0.30;;;;;;;;;;4902355;29;20051;-92
2023/11/13 10:31:00;;;;;;;0.40;0.30;;;;;;;;;;4902809;29;20028;-94
2023/11/13 10:33:30;;;;;;;1.15;0.45;;;;;;;;;;4902573;29;20067;-93
2023/11/13 10:36:04;;;;;;;0.40;0.25;;;;;;;;;;4902692;29;20084;-93
2023/11/13 10:38:40;;;;;;;1.58;0.80;;;;;;;;;;4902567;29;20039;-93
2023/11/13 10:41:06;;;;;;;1.00;0.65;;;;;;;;;;4902961;29;20043;-92
2023/11/13 10:43:43;;;;;;;0.70;0.40;;;;;;;;;;4902052;29;20042;-92
2023/11/13 10:46:11;;;;;;;1.33;0.73;;;;;;;;;;4902597;29;20039;-93
2023/11/13 10:48:49;;;;;;;2.63;1.02;;;;;;;;;;4902453;29;20036;-92
2023/11/13 10:51:16;;;;;;;0.30;0.10;;;;;;;;;;4901152;29;20127;-90
2023/11/13 10:53:42;;;;;;;0.30;0.10;;;;;;;;;;4902078;29;20036;-92
2023/11/13 10:56:13;;;;;;;1.02;0.30;;;;;;;;;;4901878;29;20032;-92
2023/11/13 10:58:40;;;;;;;1.20;0.60;;;;;;;;;;4901901;29;20043;-92
2023/11/13 11:01:13;;;;;;;1.27;0.60;;;;;;;;;;4901613;29;20078;-91
2023/11/13 11:03:44;;;;;;;1.48;0.40;;;;;;;;;;4901379;29;20071;-92
2023/11/13 11:06:14;;;;;;;2.53;0.77;;;;;;;;;;4901048;29;20130;-90
2023/11/13 11:08:43;;;;;;;0.70;0.38;;;;;;;;;;4888198;29;20450;-89
2023/11/13 11:11:14;;;;;;;0.88;0.52;;;;;;;;;;4959232;23;20048;-92
2023/11/13 11:13:44;;;;;;;1.02;0.90;;;;;;;;;;4877456;29;20037;-92
2023/11/13 11:16:23;;;;;;;1.23;0.50;;;;;;;;;;4879190;29;20037;-92
2023/11/13 11:18:59;;;;;;;2.00;0.60;;;;;;;;;;4882747;29;20056;-94
2023/11/13 11:21:45;;;;;;;2.22;0.82;;;;;;;;;;4882591;29;20173;-91
2023/11/13 11:24:30;;;;;;;0.68;0.43;;;;;;;;;;4882691;29;20047;-94
2023/11/13 11:27:00;;;;;;;1.65;0.50;;;;;;;;;;4882092;29;20185;-89
2023/11/13 11:29:33;;;;;;;0.85;0.40;;;;;;;;;;4889699;29;20040;-92
2023/11/13 11:31:59;;;;;;;1.27;0.30;;;;;;;;;;4886741;29;20099;-86
2023/11/13 11:34:28;;;;;;;7.22;0.60;;;;;;;;;;4895703;29;20061;-90
2023/11/13 11:36:58;;;;;;;0.50;0.30;;;;;;;;;;4876427;29;20041;-90
2023/11/13 11:39:25;;;;;;;3.50;0.30;;;;;;;;;;4879905;29;20033;-91
2023/11/13 11:41:52;;;;;;;3.75;1.20;;;;;;;;;;4895104;29;20406;-91
2023/11/13 11:44:21;;;;;;;1.13;0.30;;;;;;;;;;4886900;29;20029;-92
2023/11/13 11:46:47;;;;;;;1.50;0.60;;;;;;;;;;4896303;29;20040;-88
2023/11/13 11:49:24;;;;;;;0.73;0.45;;;;;;;;;;4891025;29;20091;-90
2023/11/13 11:51:51;;;;;;;0.88;0.28;;;;;;;;;;4896289;29;20040;-90
2023/11/13 11:54:17;;;;;;;0.10;0.05;;;;;;;;;;4894216;29;20037;-95
2023/11/13 11:56:57;;;;;;;0.10;0.05;;;;;;;;;;4882012;29;20044;-94
2023/11/13 11:59:27;;;;;;;0.52;0.20;;;;;;;;;;4895572;29;20531;-89
2023/11/13 12:01:53;;;;;;;0.43;0.30;;;;;;;;;;4881823;29;20033;-92
2023/11/13 12:04:19;;;;;;;1.75;0.30;;;;;;;;;;4882272;29;20032;-91
2023/11/13 12:06:49;;;;;;;0.47;0.20;;;;;;;;;;4885549;29;20037;-91
2023/11/13 12:09:17;;;;;;;0.45;0.32;;;;;;;;;;4887666;29;20037;-92
2023/11/13 12:11:43;;;;;;;1.13;0.35;;;;;;;;;;4883658;29;20044;-94
2023/11/13 12:14:12;;;;;;;0.82;0.40;;;;;;;;;;4887179;29;20507;-93
2023/11/13 12:16:38;;;;;;;1.63;1.10;;;;;;;;;;4885109;29;20033;-91
2023/11/13 12:19:04;;;;;;;3.65;1.35;;;;;;;;;;4884478;29;20032;-92
2023/11/13 12:21:32;;;;;;;6.53;1.00;;;;;;;;;;4887770;29;20084;-95
2023/11/13 12:30:00;;;;;;;2.67;0.75;;;;;;;;;;5710505;23;20048;-92
2023/11/13 14:15:15;;;;;;;0.40;0.30;;;;;;;;;;4871691;29;20063;-91
2023/11/13 14:18:11;;;;;;;1.58;0.93;;;;;;;;;;4865481;29;20506;-91
2023/11/13 14:21:10;;;;;;;3.80;0.90;;;;;;;;;;4820671;29;20049;-90
2023/11/13 14:23:48;;;;;;;4.22;1.77;;;;;;;;;;4805746;29;20163;-90
2023/11/13 14:26:27;;;;;;;2.60;1.02;;;;;;;;;;4807953;29;20088;-91
2023/11/13 14:33:02;;;;;;;;;;;;;;;;;;;;;
2023/11/13 14:42:24;;;;;;;0.40;0.32;;;;;;;;;;4781753;30;20575;-90
2023/11/13 14:44:56;;;;;;;0.85;0.52;;;;;;;;;;4767793;29;20039;-89
2023/11/13 14:47:37;;;;;;;1.55;0.50;;;;;;;;;;4837424;29;20074;-90
2023/11/13 14:50:08;;;;;;;4.35;1.42;;;;;;;;;;4858116;29;20401;-90
2023/11/13 14:52:59;;;;;;;1.27;0.60;;;;;;;;;;4859666;29;20060;-90
2023/11/13 14:55:52;;;;;;;4.90;0.88;;;;;;;;;;4852327;29;20057;-89
2023/11/13 14:58:31;;;;;;;2.55;1.48;;;;;;;;;;4858267;29;20041;-90
2023/11/13 15:04:03;;;;;;;3.00;1.17;;;;;;;;;;4827606;29;20497;-86
2023/11/13 15:06:41;;;;;;;7.93;2.50;;;;;;;;;;4822198;29;20113;-87
2023/11/13 15:09:07;;;;;;;1.58;0.85;;;;;;;;;;4823283;29;20117;-89
2023/11/13 15:11:33;;;;;;;2.80;1.15;;;;;;;;;;4841865;29;20492;-89
2023/11/13 15:14:00;;;;;;;2.90;0.70;;;;;;;;;;4839410;29;20033;-89
2023/11/13 15:16:26;;;;;;;4.03;1.10;;;;;;;;;;4823325;29;20061;-89
2023/11/13 15:18:54;;;;;;;0.75;0.35;;;;;;;;;;4836329;29;20034;-93
2023/11/13 15:21:20;;;;;;;2.45;1.02;;;;;;;;;;4831696;29;20042;-89
2023/11/13 15:23:47;;;;;;;0.65;0.40;;;;;;;;;;4840974;29;20175;-90
2023/11/13 15:26:18;;;;;;;0.65;0.40;;;;;;;;;;4841331;29;20440;-91
2023/11/13 15:28:53;;;;;;;9.32;1.60;;;;;;;;;;4841132;29;20050;-90
2023/11/13 15:31:19;;;;;;;12.75;1.90;;;;;;;;;;4847745;29;20059;-89
2023/11/13 15:33:48;;;;;;;1.77;0.60;;;;;;;;;;4861457;29;20048;-90
2023/11/13 15:36:20;;;;;;;2.35;0.93;;;;;;;;;;4847263;29;20041;-92
2023/11/13 15:39:07;;;;;;;4.07;2.17;;;;;;;;;;4861314;29;20052;-90
2023/11/13 15:41:34;;;;;;;6.15;1.80;;;;;;;;;;4861065;29;20064;-91
2023/11/13 15:44:00;;;;;;;2.30;1.45;;;;;;;;;;4871195;29;20049;-90
2023/11/13 15:46:28;;;;;;;2.50;1.05;;;;;;;;;;4866813;29;20112;-91
2023/11/13 15:49:26;;;;;;;8.52;2.00;;;;;;;;;;4868095;29;20045;-94
2023/11/13 16:29:53;;;;;;;2.30;1.05;;;;;;;;;;4807572;29;20096;-93
2023/11/13 16:32:19;;;;;;;3.83;1.23;;;;;;;;;;4822323;29;20042;-92
2023/11/13 16:34:51;;;;;;;8.57;1.98;;;;;;;;;;4810265;29;20050;-91
2023/11/13 16:37:23;;;;;;;1.30;0.60;;;;;;;;;;4818047;29;20041;-91
2023/11/13 16:39:55;;;;;;;1.08;0.60;;;;;;;;;;4858567;29;20339;-90
2023/11/13 16:42:36;;;;;;;1.33;0.30;;;;;;;;;;4858692;29;20056;-92
2023/11/13 16:45:04;;;;;;;1.02;0.40;;;;;;;;;;4847315;29;20045;-89
2023/11/13 16:47:53;;;;;;;0.90;0.50;;;;;;;;;;4862129;29;20037;-92
2023/11/13 16:50:29;;;;;;;0.80;0.28;;;;;;;;;;4881079;29;20051;-93
2023/11/13 16:53:16;;;;;;;2.67;0.68;;;;;;;;;;4864485;29;20575;-94
2023/11/13 16:55:43;;;;;;;2.60;1.10;;;;;;;;;;4881036;29;20048;-91
2023/11/13 16:58:22;;;;;;;1.70;0.63;;;;;;;;;;4880401;29;20049;-92
2023/11/13 17:00:48;;;;;;;1.73;1.17;;;;;;;;;;4855337;29;20062;-91
2023/11/13 17:03:14;;;;;;;1.48;0.90;;;;;;;;;;4862329;29;20069;-91
2023/11/13 17:05:47;;;;;;;4.90;1.88;;;;;;;;;;4880270;29;20040;-90
2023/11/13 17:08:13;;;;;;;3.13;0.65;;;;;;;;;;4895684;29;20045;-91
2023/11/13 17:10:40;;;;;;;1.38;0.90;;;;;;;;;;4881133;29;20029;-90
2023/11/13 17:13:09;;;;;;;2.88;0.70;;;;;;;;;;4876842;29;20088;-91
2023/11/13 17:15:35;;;;;;;4.30;1.48;;;;;;;;;;4864036;29;20045;-91
2023/11/13 17:18:02;;;;;;;2.88;1.70;;;;;;;;;;4865035;29;20056;-90
2023/11/13 17:20:28;;;;;;;4.35;1.45;;;;;;;;;;4890802;29;20139;-90
2023/11/13 17:22:56;;;;;;;5.63;1.48;;;;;;;;;;4900295;29;20025;-91
2023/11/13 17:25:22;;;;;;;4.07;2.08;;;;;;;;;;4899741;29;20033;-91
2023/11/13 17:28:07;;;;;;;4.72;1.42;;;;;;;;;;4914318;29;20029;-91
2023/11/13 17:59:22;;;;;;;3.22;1.58;;;;;;;;;;4899108;29;20096;-92
2023/11/13 18:02:20;;;;;;;2.95;1.42;;;;;;;;;;4915681;29;20028;-91
2023/11/13 19:05:57;;;;;;;7.30;2.88;;;;;;;;;;4973871;23;20051;-95
2023/11/13 19:08:24;;;;;;;7.45;2.08;;;;;;;;;;4914357;29;20040;-86
2023/11/13 19:11:22;;;;;;;4.22;1.20;;;;;;;;;;4890919;29;20033;-93
2023/11/13 19:13:52;;;;;;;4.28;2.03;;;;;;;;;;4892641;29;20047;-89
2023/11/13 19:16:48;;;;;;;3.10;1.38;;;;;;;;;;4897455;29;20047;-88
2023/11/13 19:19:16;;;;;;;9.15;3.53;;;;;;;;;;4885532;29;20126;-88
2023/11/13 19:21:44;;;;;;;11.02;5.38;;;;;;;;;;4895528;29;20060;-87
2023/11/13 19:24:14;;;;;;;11.05;3.55;;;;;;;;;;4888033;29;20712;-85
2023/11/13 19:29:43;;;;;;;4.55;2.53;;;;;;;;;;4916741;29;20147;-88
2023/11/13 19:32:23;;;;;;;6.18;2.55;;;;;;;;;;4887858;29;20472;-87
2023/11/13 19:34:55;;;;;;;3.97;1.38;;;;;;;;;;4882001;29;20047;-86
2023/11/13 19:37:32;;;;;;;4.90;2.28;;;;;;;;;;4875122;29;20049;-85
2023/11/13 21:35:48;;;;;;;2.08;0.75;;;;;;;;;;4925529;29;20051;-94
2023/11/13 21:38:53;;;;;;;1.27;0.43;;;;;;;;;;4872417;29;20045;-91
2023/11/13 21:41:49;;;;;;;;;;;;;;;;;;;;;
2023/11/13 21:45:09;;;;;;;;;;;;;;;;;;;;;
2023/11/13 22:04:19;;;;;;;1.50;0.50;;;;;;;;;;4898887;29;20047;-94
2023/11/13 22:10:10;;;;;;;1.70;1.08;;;;;;;;;;4881747;29;20424;-93
2023/11/13 22:21:39;;;;;;;1.83;0.77;;;;;;;;;;4901290;29;20372;-93
2023/11/13 22:24:19;;;;;;;;;;;;;;;;;;;;;
2023/11/13 22:27:06;;;;;;;1.50;0.82;;;;;;;;;;4901251;29;20040;-94
2023/11/13 22:29:34;;;;;;;2.40;0.80;;;;;;;;;;4884324;29;20060;-92
2023/11/13 22:34:52;;;;;;;0.77;0.43;;;;;;;;;;4887105;29;20494;-94
2023/11/13 22:37:24;;;;;;;2.70;0.95;;;;;;;;;;4883790;29;20025;-93
2023/11/13 22:40:05;;;;;;;3.33;0.73;;;;;;;;;;4885808;29;20467;-94
2023/11/13 22:42:37;;;;;;;4.00;2.03;;;;;;;;;;4884033;29;20033;-93
2023/11/13 22:45:03;;;;;;;;;;;;;;;;;;4883877;29;20060;-95
2023/11/13 22:47:32;;;;;;;4.88;1.42;;;;;;;;;;4899504;29;19912;-94
2023/11/13 22:50:05;;;;;;;3.10;0.63;;;;;;;;;;4884749;29;20028;-95
2023/11/13 22:52:35;;;;;;;6.45;1.13;;;;;;;;;;4888768;29;20032;-95
2023/11/13 22:55:19;;;;;;;1.10;0.70;;;;;;;;;;4884387;29;20033;-95
2023/11/13 22:57:45;;;;;;;1.63;0.63;;;;;;;;;;4883776;29;20060;-93
2023/11/13 23:00:21;;;;;;;2.75;1.05;;;;;;;;;;4883268;29;20084;-93
2023/11/13 23:02:49;;;;;;;1.70;0.65;;;;;;;;;;4883633;29;20041;-92
2023/11/13 23:05:46;;;;;;;2.13;0.57;;;;;;;;;;4883685;29;20375;-95
2023/11/13 23:08:17;;;;;;;1.92;0.30;;;;;;;;;;4900579;29;20547;-92
2023/11/13 23:10:44;;;;;;;2.92;0.82;;;;;;;;;;4883637;29;20498;-92
2023/11/13 23:20:13;;;;;;;2.47;0.77;;;;;;;;;;4904171;29;20450;-93
2023/11/13 23:22:59;;;;;;;0.70;0.40;;;;;;;;;;4883486;29;20029;-94
2023/11/13 23:25:49;;;;;;;0.95;0.32;;;;;;;;;;4884619;29;20025;-94
2023/11/13 23:28:33;;;;;;;3.22;0.75;;;;;;;;;;4850293;29;20041;-93
2023/11/13 23:31:13;;;;;;;1.45;0.70;;;;;;;;;;4845310;29;20073;-93
2023/11/13 23:34:08;;;;;;;0.98;0.55;;;;;;;;;;4849228;29;20048;-95
2023/11/13 23:36:42;;;;;;;2.25;0.88;;;;;;;;;;4849707;29;20057;-94
2023/11/13 23:52:05;;;;;;;1.10;0.28;;;;;;;;;;4804565;29;20046;-94
